sensor_id;sensor_type;location;lat;lon;timestamp;P1;P2;P0
75960;PMS7003;64644;48.914;2.254;2024-01-25T00:00:14;6.25;4.25;3.00
75960;PMS7003;64644;48.914;2.254;2024-01-25T00:02:40;4.25;3.75;2.00
75960;PMS7003;64644;48.914;2.254;2024-01-25T00:05:06;4.75;3.50;2.00
75960;PMS7003;64644;48.914;2.254;2024-01-25T00:07:32;3.00;3.00;3.00
75960;PMS7003;64644;48.914;2.254;2024-01-25T00:09:57;11.00;8.50;3.00
75960;PMS7003;64644;48.914;2.254;2024-01-25T00:12:22;12.75;6.75;5.50
75960;PMS7003;64644;48.914;2.254;2024-01-25T00:14:48;12.50;9.50;6.00
75960;PMS7003;64644;48.914;2.254;2024-01-25T00:17:13;7.00;5.25;4.00
75960;PMS7003;64644;48.914;2.254;2024-01-25T00:19:39;5.00;5.00;4.50
75960;PMS7003;64644;48.914;2.254;2024-01-25T00:22:06;6.25;3.00;2.50
75960;PMS7003;64644;48.914;2.254;2024-01-25T00:24:32;9.75;6.00;3.00
75960;PMS7003;64644;48.914;2.254;2024-01-25T00:26:57;6.75;6.00;2.75
75960;PMS7003;64644;48.914;2.254;2024-01-25T00:29:23;8.00;3.75;1.75
75960;PMS7003;64644;48.914;2.254;2024-01-25T00:31:48;3.75;2.00;2.00
75960;PMS7003;64644;48.914;2.254;2024-01-25T00:34:14;3.50;3.50;2.50
75960;PMS7003;64644;48.914;2.254;2024-01-25T00:36:39;7.00;3.00;2.25
75960;PMS7003;64644;48.914;2.254;2024-01-25T00:39:05;6.00;3.25;1.50
75960;PMS7003;64644;48.914;2.254;2024-01-25T00:41:31;4.75;2.75;2.00
75960;PMS7003;64644;48.914;2.254;2024-01-25T00:43:57;3.50;3.50;1.25
75960;PMS7003;64644;48.914;2.254;2024-01-25T00:46:23;6.00;5.00;2.00
75960;PMS7003;64644;48.914;2.254;2024-01-25T00:48:49;5.25;3.25;2.00
75960;PMS7003;64644;48.914;2.254;2024-01-25T00:51:15;6.00;3.25;2.00
75960;PMS7003;64644;48.914;2.254;2024-01-25T00:53:44;5.50;2.25;1.00
75960;PMS7003;64644;48.914;2.254;2024-01-25T00:56:09;4.50;2.50;1.50
75960;PMS7003;64644;48.914;2.254;2024-01-25T00:58:35;5.25;2.75;1.50
75960;PMS7003;64644;48.914;2.254;2024-01-25T01:01:01;5.50;5.00;2.00
75960;PMS7003;64644;48.914;2.254;2024-01-25T01:03:26;4.50;4.50;2.00
75960;PMS7003;64644;48.914;2.254;2024-01-25T01:05:52;2.75;2.75;2.75
75960;PMS7003;64644;48.914;2.254;2024-01-25T01:08:18;4.25;4.25;2.00
75960;PMS7003;64644;48.914;2.254;2024-01-25T01:10:43;5.75;5.50;2.00
75960;PMS7003;64644;48.914;2.254;2024-01-25T01:13:09;8.25;6.25;3.00
75960;PMS7003;64644;48.914;2.254;2024-01-25T01:15:34;6.25;6.25;3.50
75960;PMS7003;64644;48.914;2.254;2024-01-25T01:17:59;6.75;5.75;3.00
75960;PMS7003;64644;48.914;2.254;2024-01-25T01:20:25;5.25;5.00;2.00
75960;PMS7003;64644;48.914;2.254;2024-01-25T01:22:51;3.50;2.25;1.25
75960;PMS7003;64644;48.914;2.254;2024-01-25T01:25:16;8.25;6.75;3.00
75960;PMS7003;64644;48.914;2.254;2024-01-25T01:27:42;11.00;7.00;4.00
75960;PMS7003;64644;48.914;2.254;2024-01-25T01:30:07;8.25;6.25;3.00
75960;PMS7003;64644;48.914;2.254;2024-01-25T01:32:33;7.50;6.00;3.00
75960;PMS7003;64644;48.914;2.254;2024-01-25T01:34:59;6.25;6.00;5.00
75960;PMS7003;64644;48.914;2.254;2024-01-25T01:37:24;2.00;2.00;1.25
75960;PMS7003;64644;48.914;2.254;2024-01-25T01:39:49;1.50;1.50;0.00
75960;PMS7003;64644;48.914;2.254;2024-01-25T01:42:15;6.50;2.50;1.25
75960;PMS7003;64644;48.914;2.254;2024-01-25T01:44:40;3.00;2.00;1.00
75960;PMS7003;64644;48.914;2.254;2024-01-25T01:47:05;3.00;1.25;0.50
75960;PMS7003;64644;48.914;2.254;2024-01-25T01:49:32;4.00;2.00;2.00
75960;PMS7003;64644;48.914;2.254;2024-01-25T01:51:57;5.25;3.00;2.00
75960;PMS7003;64644;48.914;2.254;2024-01-25T01:54:23;5.25;2.00;1.00
75960;PMS7003;64644;48.914;2.254;2024-01-25T01:56:49;7.50;5.25;2.00
75960;PMS7003;64644;48.914;2.254;2024-01-25T01:59:15;2.50;2.50;1.75
75960;PMS7003;64644;48.914;2.254;2024-01-25T02:01:41;3.50;3.50;2.00
75960;PMS7003;64644;48.914;2.254;2024-01-25T02:04:06;4.00;4.00;3.00
75960;PMS7003;64644;48.914;2.254;2024-01-25T02:06:32;2.25;2.25;2.00
75960;PMS7003;64644;48.914;2.254;2024-01-25T02:08:59;5.00;2.50;1.00
75960;PMS7003;64644;48.914;2.254;2024-01-25T02:11:25;5.25;4.50;2.00
75960;PMS7003;64644;48.914;2.254;2024-01-25T02:13:51;4.75;4.75;2.00
75960;PMS7003;64644;48.914;2.254;2024-01-25T02:16:16;4.75;3.50;2.00
75960;PMS7003;64644;48.914;2.254;2024-01-25T02:18:45;5.00;2.25;2.00
75960;PMS7003;64644;48.914;2.254;2024-01-25T02:21:12;3.00;2.25;1.50
75960;PMS7003;64644;48.914;2.254;2024-01-25T02:23:37;6.75;5.00;2.00
75960;PMS7003;64644;48.914;2.254;2024-01-25T02:26:02;5.50;4.50;3.00
75960;PMS7003;64644;48.914;2.254;2024-01-25T02:28:28;6.00;5.00;2.00
75960;PMS7003;64644;48.914;2.254;2024-01-25T02:30:53;9.00;8.00;3.00
75960;PMS7003;64644;48.914;2.254;2024-01-25T02:33:18;10.75;6.75;4.50
75960;PMS7003;64644;48.914;2.254;2024-01-25T02:35:44;5.75;3.00;2.00
75960;PMS7003;64644;48.914;2.254;2024-01-25T02:38:09;2.00;2.00;2.00
75960;PMS7003;64644;48.914;2.254;2024-01-25T02:40:35;11.25;7.00;3.00
75960;PMS7003;64644;48.914;2.254;2024-01-25T02:43:00;9.75;6.25;3.00
75960;PMS7003;64644;48.914;2.254;2024-01-25T02:45:25;5.00;5.00;2.00
75960;PMS7003;64644;48.914;2.254;2024-01-25T02:47:51;7.00;5.00;3.00
75960;PMS7003;64644;48.914;2.254;2024-01-25T02:50:16;6.75;6.00;2.00
75960;PMS7003;64644;48.914;2.254;2024-01-25T02:52:41;8.50;5.50;3.00
75960;PMS7003;64644;48.914;2.254;2024-01-25T02:55:07;7.25;5.00;2.00
75960;PMS7003;64644;48.914;2.254;2024-01-25T02:57:33;7.50;4.50;1.50
75960;PMS7003;64644;48.914;2.254;2024-01-25T02:59:58;6.75;5.25;3.00
75960;PMS7003;64644;48.914;2.254;2024-01-25T03:02:23;11.50;6.75;2.00
75960;PMS7003;64644;48.914;2.254;2024-01-25T03:04:49;5.75;5.75;3.50
75960;PMS7003;64644;48.914;2.254;2024-01-25T03:07:14;5.25;3.50;2.50
75960;PMS7003;64644;48.914;2.254;2024-01-25T03:09:39;8.00;5.75;2.00
75960;PMS7003;64644;48.914;2.254;2024-01-25T03:12:05;5.00;3.00;2.00
75960;PMS7003;64644;48.914;2.254;2024-01-25T03:14:31;3.50;3.50;2.00
75960;PMS7003;64644;48.914;2.254;2024-01-25T03:16:56;6.00;5.00;2.25
75960;PMS7003;64644;48.914;2.254;2024-01-25T03:19:25;2.00;2.00;0.50
75960;PMS7003;64644;48.914;2.254;2024-01-25T03:21:51;7.00;7.00;3.00
75960;PMS7003;64644;48.914;2.254;2024-01-25T03:24:17;5.25;3.00;2.00
75960;PMS7003;64644;48.914;2.254;2024-01-25T03:26:42;4.25;2.00;1.50
75960;PMS7003;64644;48.914;2.254;2024-01-25T03:29:08;9.75;5.50;3.00
75960;PMS7003;64644;48.914;2.254;2024-01-25T03:31:33;5.00;2.50;1.00
75960;PMS7003;64644;48.914;2.254;2024-01-25T03:33:59;4.50;4.50;2.25
75960;PMS7003;64644;48.914;2.254;2024-01-25T03:36:24;5.00;3.00;2.00
75960;PMS7003;64644;48.914;2.254;2024-01-25T03:38:50;7.25;5.25;2.00
75960;PMS7003;64644;48.914;2.254;2024-01-25T03:41:15;4.00;4.00;3.00
75960;PMS7003;64644;48.914;2.254;2024-01-25T03:43:40;3.50;3.50;2.25
75960;PMS7003;64644;48.914;2.254;2024-01-25T03:46:06;5.00;5.00;2.25
75960;PMS7003;64644;48.914;2.254;2024-01-25T03:48:31;6.00;3.00;3.00
75960;PMS7003;64644;48.914;2.254;2024-01-25T03:50:57;2.75;2.75;1.25
75960;PMS7003;64644;48.914;2.254;2024-01-25T03:53:22;5.75;2.00;1.25
75960;PMS7003;64644;48.914;2.254;2024-01-25T03:55:48;2.00;2.00;1.00
75960;PMS7003;64644;48.914;2.254;2024-01-25T03:58:14;3.00;1.00;0.00
75960;PMS7003;64644;48.914;2.254;2024-01-25T04:00:40;1.25;1.25;0.75
75960;PMS7003;64644;48.914;2.254;2024-01-25T04:03:06;3.00;1.00;1.00
75960;PMS7003;64644;48.914;2.254;2024-01-25T04:05:31;1.00;1.00;1.00
75960;PMS7003;64644;48.914;2.254;2024-01-25T04:07:57;1.00;1.00;0.75
75960;PMS7003;64644;48.914;2.254;2024-01-25T04:10:22;2.00;2.00;0.50
75960;PMS7003;64644;48.914;2.254;2024-01-25T04:12:47;1.75;1.00;0.00
75960;PMS7003;64644;48.914;2.254;2024-01-25T04:15:13;2.00;1.00;0.00
75960;PMS7003;64644;48.914;2.254;2024-01-25T04:17:38;1.75;1.75;0.50
75960;PMS7003;64644;48.914;2.254;2024-01-25T04:20:03;3.00;3.00;1.00
75960;PMS7003;64644;48.914;2.254;2024-01-25T04:22:29;1.75;1.00;1.00
75960;PMS7003;64644;48.914;2.254;2024-01-25T04:24:55;1.25;1.00;1.00
75960;PMS7003;64644;48.914;2.254;2024-01-25T04:27:20;3.00;2.00;1.00
75960;PMS7003;64644;48.914;2.254;2024-01-25T04:29:45;3.50;2.25;1.25
75960;PMS7003;64644;48.914;2.254;2024-01-25T04:32:12;5.00;5.00;2.25
75960;PMS7003;64644;48.914;2.254;2024-01-25T04:34:37;4.00;4.00;2.25
75960;PMS7003;64644;48.914;2.254;2024-01-25T04:37:03;2.75;2.75;1.00
75960;PMS7003;64644;48.914;2.254;2024-01-25T04:39:28;7.00;4.50;2.25
75960;PMS7003;64644;48.914;2.254;2024-01-25T04:41:54;5.00;5.00;2.00
75960;PMS7003;64644;48.914;2.254;2024-01-25T04:44:19;5.00;5.00;2.75
75960;PMS7003;64644;48.914;2.254;2024-01-25T04:46:44;6.00;5.50;3.00
75960;PMS7003;64644;48.914;2.254;2024-01-25T04:49:10;12.00;10.00;5.50
75960;PMS7003;64644;48.914;2.254;2024-01-25T04:51:35;11.25;9.00;5.25
75960;PMS7003;64644;48.914;2.254;2024-01-25T04:54:00;9.25;7.00;6.00
75960;PMS7003;64644;48.914;2.254;2024-01-25T04:56:26;12.75;9.75;6.50
75960;PMS7003;64644;48.914;2.254;2024-01-25T04:58:51;11.75;9.75;6.00
75960;PMS7003;64644;48.914;2.254;2024-01-25T05:01:17;10.25;9.50;4.50
75960;PMS7003;64644;48.914;2.254;2024-01-25T05:03:42;12.75;11.00;7.00
75960;PMS7003;64644;48.914;2.254;2024-01-25T05:06:07;11.25;11.00;7.00
75960;PMS7003;64644;48.914;2.254;2024-01-25T05:08:33;9.00;9.00;6.50
75960;PMS7003;64644;48.914;2.254;2024-01-25T05:10:58;14.75;12.25;6.25
75960;PMS7003;64644;48.914;2.254;2024-01-25T05:13:23;11.25;11.25;6.00
75960;PMS7003;64644;48.914;2.254;2024-01-25T05:15:49;8.25;8.25;6.00
75960;PMS7003;64644;48.914;2.254;2024-01-25T05:18:14;11.50;7.25;6.00
75960;PMS7003;64644;48.914;2.254;2024-01-25T05:20:40;8.75;8.00;6.25
75960;PMS7003;64644;48.914;2.254;2024-01-25T05:23:05;8.00;8.00;5.50
75960;PMS7003;64644;48.914;2.254;2024-01-25T05:25:31;9.00;6.75;5.00
75960;PMS7003;64644;48.914;2.254;2024-01-25T05:27:57;10.50;7.75;5.00
75960;PMS7003;64644;48.914;2.254;2024-01-25T05:30:23;11.25;11.00;6.75
75960;PMS7003;64644;48.914;2.254;2024-01-25T05:32:49;9.25;9.25;6.00
75960;PMS7003;64644;48.914;2.254;2024-01-25T05:35:15;16.75;15.00;6.75
75960;PMS7003;64644;48.914;2.254;2024-01-25T05:37:41;12.50;11.25;6.00
75960;PMS7003;64644;48.914;2.254;2024-01-25T05:40:07;14.75;13.50;9.25
75960;PMS7003;64644;48.914;2.254;2024-01-25T05:42:34;20.25;17.25;9.00
75960;PMS7003;64644;48.914;2.254;2024-01-25T05:44:59;17.00;13.25;7.75
75960;PMS7003;64644;48.914;2.254;2024-01-25T05:47:25;19.50;14.50;7.00
75960;PMS7003;64644;48.914;2.254;2024-01-25T05:49:50;11.00;11.00;6.00
75960;PMS7003;64644;48.914;2.254;2024-01-25T05:52:16;15.50;14.00;8.00
75960;PMS7003;64644;48.914;2.254;2024-01-25T05:54:41;17.50;15.50;7.75
75960;PMS7003;64644;48.914;2.254;2024-01-25T05:57:07;15.00;11.25;7.00
75960;PMS7003;64644;48.914;2.254;2024-01-25T05:59:32;17.75;14.50;8.25
75960;PMS7003;64644;48.914;2.254;2024-01-25T06:01:57;15.00;12.50;8.50
75960;PMS7003;64644;48.914;2.254;2024-01-25T06:04:22;14.25;11.50;7.00
75960;PMS7003;64644;48.914;2.254;2024-01-25T06:06:48;20.00;13.50;9.25
75960;PMS7003;64644;48.914;2.254;2024-01-25T06:09:13;22.00;18.75;10.75
75960;PMS7003;64644;48.914;2.254;2024-01-25T06:11:41;24.75;15.50;8.50
75960;PMS7003;64644;48.914;2.254;2024-01-25T06:14:07;18.75;14.25;7.25
75960;PMS7003;64644;48.914;2.254;2024-01-25T06:16:33;13.50;13.50;9.75
75960;PMS7003;64644;48.914;2.254;2024-01-25T06:18:58;15.75;15.25;8.75
75960;PMS7003;64644;48.914;2.254;2024-01-25T06:21:25;20.00;17.00;10.00
75960;PMS7003;64644;48.914;2.254;2024-01-25T06:23:50;20.00;19.00;11.00
75960;PMS7003;64644;48.914;2.254;2024-01-25T06:26:16;22.25;19.00;11.75
75960;PMS7003;64644;48.914;2.254;2024-01-25T06:28:41;19.00;15.00;10.00
75960;PMS7003;64644;48.914;2.254;2024-01-25T06:31:06;20.33;16.67;10.67
75960;PMS7003;64644;48.914;2.254;2024-01-25T06:33:32;21.50;16.75;11.00
75960;PMS7003;64644;48.914;2.254;2024-01-25T06:35:57;17.25;15.50;10.00
75960;PMS7003;64644;48.914;2.254;2024-01-25T06:38:23;23.00;16.25;11.50
75960;PMS7003;64644;48.914;2.254;2024-01-25T06:40:48;22.25;18.50;10.00
75960;PMS7003;64644;48.914;2.254;2024-01-25T06:43:13;22.25;18.00;9.50
75960;PMS7003;64644;48.914;2.254;2024-01-25T06:45:39;19.00;14.25;5.50
75960;PMS7003;64644;48.914;2.254;2024-01-25T06:48:05;21.50;20.00;11.00
75960;PMS7003;64644;48.914;2.254;2024-01-25T06:50:31;20.50;19.00;11.00
75960;PMS7003;64644;48.914;2.254;2024-01-25T06:52:57;17.75;15.75;11.00
75960;PMS7003;64644;48.914;2.254;2024-01-25T06:55:22;21.25;19.00;10.50
75960;PMS7003;64644;48.914;2.254;2024-01-25T06:57:48;19.00;15.00;8.50
75960;PMS7003;64644;48.914;2.254;2024-01-25T07:00:14;21.75;16.00;11.25
75960;PMS7003;64644;48.914;2.254;2024-01-25T07:02:40;19.25;17.50;10.50
75960;PMS7003;64644;48.914;2.254;2024-01-25T07:05:07;16.50;15.25;9.50
75960;PMS7003;64644;48.914;2.254;2024-01-25T07:07:32;18.50;16.00;8.75
75960;PMS7003;64644;48.914;2.254;2024-01-25T07:09:58;21.75;19.50;11.00
75960;PMS7003;64644;48.914;2.254;2024-01-25T07:12:23;23.50;18.50;10.75
75960;PMS7003;64644;48.914;2.254;2024-01-25T07:14:49;17.75;14.25;8.25
75960;PMS7003;64644;48.914;2.254;2024-01-25T07:17:14;18.00;16.33;10.67
75960;PMS7003;64644;48.914;2.254;2024-01-25T07:19:39;17.50;14.25;8.25
75960;PMS7003;64644;48.914;2.254;2024-01-25T07:22:05;21.50;17.50;9.00
75960;PMS7003;64644;48.914;2.254;2024-01-25T07:24:30;20.33;17.00;10.33
75960;PMS7003;64644;48.914;2.254;2024-01-25T07:26:56;18.50;16.00;9.75
75960;PMS7003;64644;48.914;2.254;2024-01-25T07:29:21;19.00;17.33;9.33
75960;PMS7003;64644;48.914;2.254;2024-01-25T07:31:46;18.50;14.75;10.00
75960;PMS7003;64644;48.914;2.254;2024-01-25T07:34:12;16.67;12.67;7.00
75960;PMS7003;64644;48.914;2.254;2024-01-25T07:36:37;19.00;13.00;8.67
75960;PMS7003;64644;48.914;2.254;2024-01-25T07:39:02;16.33;15.67;10.33
75960;PMS7003;64644;48.914;2.254;2024-01-25T07:41:28;11.50;11.00;6.50
75960;PMS7003;64644;48.914;2.254;2024-01-25T07:43:53;21.75;18.00;10.75
75960;PMS7003;64644;48.914;2.254;2024-01-25T07:46:20;15.50;13.75;8.00
75960;PMS7003;64644;48.914;2.254;2024-01-25T07:48:46;15.00;12.75;7.25
75960;PMS7003;64644;48.914;2.254;2024-01-25T07:51:12;16.00;15.00;7.75
75960;PMS7003;64644;48.914;2.254;2024-01-25T07:53:38;16.75;16.00;10.50
75960;PMS7003;64644;48.914;2.254;2024-01-25T07:56:05;17.00;15.25;10.00
75960;PMS7003;64644;48.914;2.254;2024-01-25T07:58:32;16.00;12.25;9.25
75960;PMS7003;64644;48.914;2.254;2024-01-25T08:00:57;15.33;15.33;8.00
75960;PMS7003;64644;48.914;2.254;2024-01-25T08:03:22;21.00;19.33;11.00
75960;PMS7003;64644;48.914;2.254;2024-01-25T08:05:47;12.00;11.00;7.25
75960;PMS7003;64644;48.914;2.254;2024-01-25T08:08:13;17.33;15.67;10.33
75960;PMS7003;64644;48.914;2.254;2024-01-25T08:10:38;16.50;15.50;10.00
75960;PMS7003;64644;48.914;2.254;2024-01-25T08:13:03;20.67;17.00;10.00
75960;PMS7003;64644;48.914;2.254;2024-01-25T08:15:29;16.75;14.50;8.75
75960;PMS7003;64644;48.914;2.254;2024-01-25T08:17:54;13.75;12.75;7.75
75960;PMS7003;64644;48.914;2.254;2024-01-25T08:20:19;13.50;12.00;6.25
75960;PMS7003;64644;48.914;2.254;2024-01-25T08:22:45;19.50;15.25;10.00
75960;PMS7003;64644;48.914;2.254;2024-01-25T08:25:10;19.50;11.25;7.50
75960;PMS7003;64644;48.914;2.254;2024-01-25T08:27:38;21.50;15.00;8.00
75960;PMS7003;64644;48.914;2.254;2024-01-25T08:30:04;21.25;14.50;10.25
75960;PMS7003;64644;48.914;2.254;2024-01-25T08:32:30;13.00;12.00;8.25
75960;PMS7003;64644;48.914;2.254;2024-01-25T08:34:55;14.75;13.25;8.00
75960;PMS7003;64644;48.914;2.254;2024-01-25T08:37:20;14.00;12.75;9.25
75960;PMS7003;64644;48.914;2.254;2024-01-25T08:39:46;11.50;11.50;7.50
75960;PMS7003;64644;48.914;2.254;2024-01-25T08:42:14;13.50;12.00;8.00
75960;PMS7003;64644;48.914;2.254;2024-01-25T08:44:40;14.50;10.50;7.00
75960;PMS7003;64644;48.914;2.254;2024-01-25T08:47:09;13.25;10.25;6.25
75960;PMS7003;64644;48.914;2.254;2024-01-25T08:49:37;15.75;9.75;6.50
75960;PMS7003;64644;48.914;2.254;2024-01-25T08:52:03;13.00;11.00;9.50
75960;PMS7003;64644;48.914;2.254;2024-01-25T08:54:30;16.75;16.00;7.75
75960;PMS7003;64644;48.914;2.254;2024-01-25T08:56:55;14.25;12.00;8.25
75960;PMS7003;64644;48.914;2.254;2024-01-25T08:59:20;11.67;11.67;8.00
75960;PMS7003;64644;48.914;2.254;2024-01-25T09:01:46;11.50;11.50;7.75
75960;PMS7003;64644;48.914;2.254;2024-01-25T09:04:11;12.25;11.00;7.00
75960;PMS7003;64644;48.914;2.254;2024-01-25T09:06:36;11.25;8.75;7.00
75960;PMS7003;64644;48.914;2.254;2024-01-25T09:09:02;10.00;9.25;6.00
75960;PMS7003;64644;48.914;2.254;2024-01-25T09:11:28;9.75;8.00;6.00
75960;PMS7003;64644;48.914;2.254;2024-01-25T09:13:53;6.50;6.00;3.50
75960;PMS7003;64644;48.914;2.254;2024-01-25T09:16:19;11.00;7.75;6.00
75960;PMS7003;64644;48.914;2.254;2024-01-25T09:18:45;9.00;8.00;4.00
75960;PMS7003;64644;48.914;2.254;2024-01-25T09:21:10;10.50;7.25;5.00
75960;PMS7003;64644;48.914;2.254;2024-01-25T09:23:35;7.00;6.50;4.75
75960;PMS7003;64644;48.914;2.254;2024-01-25T09:26:01;6.50;6.50;6.00
75960;PMS7003;64644;48.914;2.254;2024-01-25T09:28:26;6.50;6.00;5.00
75960;PMS7003;64644;48.914;2.254;2024-01-25T09:30:51;11.50;6.75;5.00
75960;PMS7003;64644;48.914;2.254;2024-01-25T09:33:17;6.00;6.00;3.00
75960;PMS7003;64644;48.914;2.254;2024-01-25T09:35:43;6.50;2.75;2.00
75960;PMS7003;64644;48.914;2.254;2024-01-25T09:38:11;6.00;5.25;3.00
75960;PMS7003;64644;48.914;2.254;2024-01-25T09:40:37;6.00;6.00;3.50
75960;PMS7003;64644;48.914;2.254;2024-01-25T09:43:02;9.50;7.25;6.00
75960;PMS7003;64644;48.914;2.254;2024-01-25T09:45:28;10.25;7.00;3.50
75960;PMS7003;64644;48.914;2.254;2024-01-25T09:47:56;7.50;6.50;4.50
75960;PMS7003;64644;48.914;2.254;2024-01-25T09:50:21;3.00;3.00;2.00
75960;PMS7003;64644;48.914;2.254;2024-01-25T09:52:49;8.75;6.25;3.00
75960;PMS7003;64644;48.914;2.254;2024-01-25T09:55:25;7.25;6.25;3.25
75960;PMS7003;64644;48.914;2.254;2024-01-25T09:57:54;5.75;5.75;3.75
75960;PMS7003;64644;48.914;2.254;2024-01-25T10:00:23;7.50;4.25;3.00
75960;PMS7003;64644;48.914;2.254;2024-01-25T10:02:49;8.00;6.00;4.25
75960;PMS7003;64644;48.914;2.254;2024-01-25T10:05:15;7.00;7.00;5.75
75960;PMS7003;64644;48.914;2.254;2024-01-25T10:07:41;9.50;8.00;4.25
75960;PMS7003;64644;48.914;2.254;2024-01-25T10:10:08;8.00;7.00;4.00
75960;PMS7003;64644;48.914;2.254;2024-01-25T10:12:34;7.50;7.50;4.25
75960;PMS7003;64644;48.914;2.254;2024-01-25T10:15:00;6.00;6.00;4.25
75960;PMS7003;64644;48.914;2.254;2024-01-25T10:17:27;9.75;7.75;6.00
75960;PMS7003;64644;48.914;2.254;2024-01-25T10:19:53;11.25;8.25;4.25
75960;PMS7003;64644;48.914;2.254;2024-01-25T10:22:18;8.00;7.00;4.50
75960;PMS7003;64644;48.914;2.254;2024-01-25T10:24:44;7.25;6.25;4.25
75960;PMS7003;64644;48.914;2.254;2024-01-25T10:27:09;9.25;9.25;6.00
75960;PMS7003;64644;48.914;2.254;2024-01-25T10:29:35;12.25;11.75;6.50
75960;PMS7003;64644;48.914;2.254;2024-01-25T10:32:02;10.00;7.00;6.00
75960;PMS7003;64644;48.914;2.254;2024-01-25T10:34:28;13.00;11.00;6.50
75960;PMS7003;64644;48.914;2.254;2024-01-25T10:36:54;7.75;7.75;5.00
75960;PMS7003;64644;48.914;2.254;2024-01-25T10:39:21;11.00;8.50;6.00
75960;PMS7003;64644;48.914;2.254;2024-01-25T10:41:46;8.75;7.75;6.00
75960;PMS7003;64644;48.914;2.254;2024-01-25T10:44:15;8.50;7.00;4.50
75960;PMS7003;64644;48.914;2.254;2024-01-25T10:46:43;6.75;5.50;4.00
75960;PMS7003;64644;48.914;2.254;2024-01-25T10:49:11;6.75;6.50;3.00
75960;PMS7003;64644;48.914;2.254;2024-01-25T10:51:37;8.00;6.00;4.00
75960;PMS7003;64644;48.914;2.254;2024-01-25T10:54:04;7.00;7.00;3.75
75960;PMS7003;64644;48.914;2.254;2024-01-25T10:56:32;7.00;7.00;3.00
75960;PMS7003;64644;48.914;2.254;2024-01-25T10:58:57;7.50;7.50;4.50
75960;PMS7003;64644;48.914;2.254;2024-01-25T11:01:24;7.00;5.00;2.75
75960;PMS7003;64644;48.914;2.254;2024-01-25T11:03:51;5.75;5.75;3.00
75960;PMS7003;64644;48.914;2.254;2024-01-25T11:06:17;10.50;6.75;3.50
75960;PMS7003;64644;48.914;2.254;2024-01-25T11:08:46;8.75;8.25;4.50
75960;PMS7003;64644;48.914;2.254;2024-01-25T11:11:12;7.75;7.25;6.25
75960;PMS7003;64644;48.914;2.254;2024-01-25T11:13:42;8.50;7.25;4.00
75960;PMS7003;64644;48.914;2.254;2024-01-25T11:18:56;10.50;7.50;4.00
75960;PMS7003;64644;48.914;2.254;2024-01-25T11:21:44;8.75;7.00;4.50
75960;PMS7003;64644;48.914;2.254;2024-01-25T11:26:38;7.00;7.00;6.75
75960;PMS7003;64644;48.914;2.254;2024-01-25T11:29:04;8.25;7.25;3.00
75960;PMS7003;64644;48.914;2.254;2024-01-25T11:31:29;9.00;7.50;6.50
75960;PMS7003;64644;48.914;2.254;2024-01-25T11:33:58;7.75;6.00;3.00
75960;PMS7003;64644;48.914;2.254;2024-01-25T11:36:24;8.25;6.25;4.00
75960;PMS7003;64644;48.914;2.254;2024-01-25T11:38:50;9.00;8.00;6.00
75960;PMS7003;64644;48.914;2.254;2024-01-25T11:41:15;7.00;6.00;3.00
75960;PMS7003;64644;48.914;2.254;2024-01-25T11:43:41;8.00;8.00;4.50
75960;PMS7003;64644;48.914;2.254;2024-01-25T11:46:06;7.75;6.00;4.00
75960;PMS7003;64644;48.914;2.254;2024-01-25T11:48:32;8.00;7.75;6.00
75960;PMS7003;64644;48.914;2.254;2024-01-25T11:51:00;7.50;5.00;3.00
75960;PMS7003;64644;48.914;2.254;2024-01-25T11:53:25;7.75;6.75;4.00
75960;PMS7003;64644;48.914;2.254;2024-01-25T11:55:51;5.75;5.75;3.75
75960;PMS7003;64644;48.914;2.254;2024-01-25T11:58:18;7.00;7.00;4.00
75960;PMS7003;64644;48.914;2.254;2024-01-25T12:00:43;8.75;8.00;6.25
75960;PMS7003;64644;48.914;2.254;2024-01-25T12:03:08;5.50;3.75;3.00
75960;PMS7003;64644;48.914;2.254;2024-01-25T12:05:34;7.50;7.50;4.50
75960;PMS7003;64644;48.914;2.254;2024-01-25T12:08:00;6.00;6.00;4.00
75960;PMS7003;64644;48.914;2.254;2024-01-25T12:10:25;6.00;6.00;3.50
75960;PMS7003;64644;48.914;2.254;2024-01-25T12:12:51;9.00;6.75;4.00
75960;PMS7003;64644;48.914;2.254;2024-01-25T12:15:16;8.25;7.75;4.00
75960;PMS7003;64644;48.914;2.254;2024-01-25T12:17:42;6.00;6.00;3.25
75960;PMS7003;64644;48.914;2.254;2024-01-25T12:20:07;6.00;6.00;3.75
75960;PMS7003;64644;48.914;2.254;2024-01-25T12:22:36;4.00;4.00;3.00
75960;PMS7003;64644;48.914;2.254;2024-01-25T12:25:02;8.25;7.00;4.00
75960;PMS7003;64644;48.914;2.254;2024-01-25T12:27:32;6.75;4.00;3.00
75960;PMS7003;64644;48.914;2.254;2024-01-25T12:29:57;7.00;7.00;4.00
75960;PMS7003;64644;48.914;2.254;2024-01-25T12:32:23;5.50;5.50;3.25
75960;PMS7003;64644;48.914;2.254;2024-01-25T12:34:54;4.00;3.75;3.00
75960;PMS7003;64644;48.914;2.254;2024-01-25T12:37:21;4.00;4.00;2.00
75960;PMS7003;64644;48.914;2.254;2024-01-25T12:39:46;3.50;2.75;2.00
75960;PMS7003;64644;48.914;2.254;2024-01-25T12:42:12;3.00;3.00;2.00
75960;PMS7003;64644;48.914;2.254;2024-01-25T12:44:38;5.75;4.00;2.00
75960;PMS7003;64644;48.914;2.254;2024-01-25T12:47:03;2.00;2.00;1.75
75960;PMS7003;64644;48.914;2.254;2024-01-25T12:49:31;4.00;2.75;2.00
75960;PMS7003;64644;48.914;2.254;2024-01-25T12:51:57;1.50;1.25;1.00
75960;PMS7003;64644;48.914;2.254;2024-01-25T12:54:22;3.00;2.00;2.00
75960;PMS7003;64644;48.914;2.254;2024-01-25T12:56:48;3.00;3.00;1.50
75960;PMS7003;64644;48.914;2.254;2024-01-25T12:59:13;2.50;2.50;2.00
75960;PMS7003;64644;48.914;2.254;2024-01-25T13:01:38;4.75;3.50;2.00
75960;PMS7003;64644;48.914;2.254;2024-01-25T13:04:04;2.00;2.00;1.25
75960;PMS7003;64644;48.914;2.254;2024-01-25T13:06:29;5.00;2.00;1.00
75960;PMS7003;64644;48.914;2.254;2024-01-25T13:08:54;3.50;2.00;1.25
75960;PMS7003;64644;48.914;2.254;2024-01-25T13:11:20;2.75;2.75;2.00
75960;PMS7003;64644;48.914;2.254;2024-01-25T13:13:45;2.00;2.00;1.00
75960;PMS7003;64644;48.914;2.254;2024-01-25T13:16:10;2.25;1.50;1.25
75960;PMS7003;64644;48.914;2.254;2024-01-25T13:18:36;3.00;2.00;1.00
75960;PMS7003;64644;48.914;2.254;2024-01-25T13:21:01;1.00;1.00;0.00
75960;PMS7003;64644;48.914;2.254;2024-01-25T13:23:26;1.50;0.75;0.50
75960;PMS7003;64644;48.914;2.254;2024-01-25T13:25:52;3.75;2.75;1.75
75960;PMS7003;64644;48.914;2.254;2024-01-25T13:28:17;3.00;3.00;2.00
75960;PMS7003;64644;48.914;2.254;2024-01-25T13:30:42;2.75;2.75;2.00
75960;PMS7003;64644;48.914;2.254;2024-01-25T13:33:08;2.67;2.67;2.00
75960;PMS7003;64644;48.914;2.254;2024-01-25T13:35:33;2.00;2.00;1.00
75960;PMS7003;64644;48.914;2.254;2024-01-25T13:37:58;1.33;1.33;1.00
75960;PMS7003;64644;48.914;2.254;2024-01-25T13:40:26;2.75;2.75;1.75
75960;PMS7003;64644;48.914;2.254;2024-01-25T13:42:52;3.00;2.00;2.00
75960;PMS7003;64644;48.914;2.254;2024-01-25T13:45:17;4.00;2.25;1.00
75960;PMS7003;64644;48.914;2.254;2024-01-25T13:47:43;3.50;3.00;2.00
75960;PMS7003;64644;48.914;2.254;2024-01-25T13:50:09;4.00;3.00;2.00
75960;PMS7003;64644;48.914;2.254;2024-01-25T13:52:34;4.25;3.50;2.00
75960;PMS7003;64644;48.914;2.254;2024-01-25T13:54:59;3.33;3.33;3.00
75960;PMS7003;64644;48.914;2.254;2024-01-25T13:57:25;1.75;1.50;1.00
75960;PMS7003;64644;48.914;2.254;2024-01-25T13:59:50;3.00;2.00;1.00
75960;PMS7003;64644;48.914;2.254;2024-01-25T14:02:16;2.50;2.50;1.00
75960;PMS7003;64644;48.914;2.254;2024-01-25T14:04:41;2.50;2.50;1.00
75960;PMS7003;64644;48.914;2.254;2024-01-25T14:07:07;2.00;2.00;1.00
75960;PMS7003;64644;48.914;2.254;2024-01-25T14:09:32;1.00;1.00;0.50